GCRR METAR and TAF | Updated Today

GCRR METAR

Lanzarote Airport

Observation time: 32 min. ago

GCRR 032200Z 02012KT 9999 FEW025 17/12 Q1023

Need help? Read our tutorial on how to read METARs or read the parsed version below.

Lanzarote Airport (GCRR) METAR

  • Weather conditions on Fri, 03 Dec 2021 22:00:00 +0000 (32 min. ago):
  • Present conditions: Dry
  • Clouds: A few at 762 meters
  • Visibility: Greater than 10 km
  • Wind: 20 degrees at 12 knots
  • Temperature: 17 celsius
  • Dew point: 12 celsius
  • Pressure: 1023 millibars
  • Remarks: None


Useful to know...

GCRR TAF

Lanzarote Airport

TAF GCRR 032000Z 0321/0421 06014KT 9999 FEW035 TX22/0413Z TN16/0406Z PROB30 TEMPO 0409/0416 4500 HZ
Observation time: 2:32 hr. ago
Need help? Read our tutorial on how to read TAFs or read the parsed version below.

Parsed version of TAF for Lanzarote Airport (GCRR)

  • From 03 December at 21:00 UTC, to day 04 of the month at 21:00 UTC
  • Clouds: A few at 1067 meters
  • Visibility: Greater than 10 km
  • Wind: 60 degrees at 14
  • Expected to arise temporarily, from 04 December at 09:00 UTC, to day 04 of the month at 16:00 UTC
    Probability of 30%
  • Visibility: 4500 meters
  • Other: Haze